Blacksville, West Virginia
Current Conditions -  °F | °C
As of 7:53 PM on Wednesday 17 Dec 2014 (Local Time) from KMGW Reporting Station
Overcast Overcast  
Wind Chill: 26°   Ceiling: 2400
Heat Index: 32°   Visibility: 10mi
Dew Point: 21°   Wind: 6mph
Humidity: 64%   Direction: 240°WSW
Pressure: 30.13"   Gusts: NA
Location:  39.72°N, 80.21°W
Report Text: KMGW 180053Z 24005KT 10SM OVC024 00/M06 A3013 RMK AO2 SLP212 T00001061
Loading
Personal Weather Stations






























Interactive Weather Map New forecast layout! Learn more

10-Day Weather Forecast

Advertisements
Track Severe Weather on mobile